Terminal Aerodrome Forecast
Issued by NWS Charleston, WV

Current Version | Previous Version | Graphics & Text | Print | Product List | Glossary On
Versions: 1 2 3 4 5 6 7 8 9 10 11 12 13 14 15 16 17 18 19 20 21 22
206
FTUS41 KRLX 231501 AAA
TAFBKW
TAF AMD
KBKW 231501Z 2315/2412 14010G15KT P6SM SKC
     FM240000 15003KT P6SM SCT250=

USA.gov is the U.S. government's official web portal to all federal, state and local government web resources and services.